Time;durP1;ratioP1;P1;durP2;ratioP2;P2;SDS_P1;SDS_P2;PMS_P1;PMS_P2;Temp;Humidity;BMP_temperature;BMP_pressure;BME280_temperature;BME280_humidity;BME280_pressure;Samples;Min_cycle;Max_cycle;Signal;HPM_P1;HPM_P2
2021/12/17 00:01:05;;;;;;;;;;;7.60;92.20;;;;;;5052529;28;19927;-51
2021/12/17 00:03:39;;;;;;;;;;;7.60;92.20;;;;;;5050911;28;20289;-49
2021/12/17 00:08:37;;;;;;;;;;;7.60;92.30;;;;;;5039400;28;20006;-48
2021/12/17 00:11:05;;;;;;;;;;;7.60;92.40;;;;;;5047280;28;20269;-53
2021/12/17 00:13:33;;;;;;;;;;;7.50;92.30;;;;;;5039814;28;19920;-53
2021/12/17 00:16:01;;;;;;;;;;;7.60;92.30;;;;;;5047876;28;20024;-48
2021/12/17 00:18:37;;;;;;;;;;;7.50;92.30;;;;;;5039081;28;19919;-51
2021/12/17 00:43:53;;;;;;;;;;;7.60;92.60;;;;;;5031878;28;19920;-50
2021/12/17 00:46:35;;;;;;;;;;;7.60;92.60;;;;;;5032604;28;19940;-53
2021/12/17 00:49:03;;;;;;;;;;;7.70;92.70;;;;;;5031996;28;19916;-51
2021/12/17 00:54:07;;;;;;;;;;;7.80;92.70;;;;;;5035661;28;20341;-49
2021/12/17 00:56:32;;;;;;;;;;;7.80;92.60;;;;;;5031005;28;19920;-53
2021/12/17 00:59:01;;;;;;;;;;;7.80;92.60;;;;;;5020037;28;19964;-50
2021/12/17 01:01:28;;;;;;;;;;;7.80;92.60;;;;;;5051115;28;19904;-52
2021/12/17 01:03:58;;;;;;;;;;;7.80;92.50;;;;;;5040053;28;19917;-48
2021/12/17 01:06:25;;;;;;;;;;;7.80;92.50;;;;;;5013814;28;20032;-48
2021/12/17 01:08:54;;;;;;;;;;;7.80;92.40;;;;;;5041605;28;19909;-50
2021/12/17 01:11:21;;;;;;;;;;;7.90;92.40;;;;;;5032354;28;19909;-53
2021/12/17 01:13:47;;;;;;;;;;;7.90;92.40;;;;;;5041122;28;19916;-46
2021/12/17 01:16:14;;;;;;;;;;;7.90;92.30;;;;;;5033296;28;19909;-48
2021/12/17 01:19:06;;;;;;;;;;;7.90;92.30;;;;;;5041854;28;19916;-49
2021/12/17 01:24:37;;;;;;;;;;;7.90;92.30;;;;;;5019085;28;19992;-47
2021/12/17 01:35:29;;;;;;;;;;;7.80;92.30;;;;;;5038929;28;19922;-48
2021/12/17 01:43:18;;;;;;;;;;;7.90;92.30;;;;;;5036447;28;19958;-51
2021/12/17 01:45:45;;;;;;;;;;;7.90;92.40;;;;;;5048342;28;19921;-47
2021/12/17 01:48:16;;;;;;;;;;;7.90;92.40;;;;;;5048212;28;19913;-50
2021/12/17 02:01:36;;;;;;;;;;;7.90;92.40;;;;;;5050451;28;20341;-57
2021/12/17 02:04:05;;;;;;;;;;;7.90;92.40;;;;;;5038261;28;20007;-58
2021/12/17 02:06:35;;;;;;;;;;;8.00;92.40;;;;;;5031398;28;19916;-57
2021/12/17 02:09:11;;;;;;;;;;;8.00;92.40;;;;;;5035317;28;19913;-57
2021/12/17 02:33:06;;;;;;;;;;;7.90;92.50;;;;;;5034011;28;19924;-53
2021/12/17 02:35:39;;;;;;;;;;;7.90;92.60;;;;;;5025237;28;19974;-55
2021/12/17 02:38:07;;;;;;;;;;;7.90;92.60;;;;;;5028752;28;19954;-53
2021/12/17 02:45:48;;;;;;;;;;;7.90;92.80;;;;;;5033737;28;20011;-53
2021/12/17 02:48:32;;;;;;;;;;;8.00;92.70;;;;;;5043843;28;20011;-52
2021/12/17 02:50:59;;;;;;;;;;;8.00;92.80;;;;;;5038078;28;19908;-52
2021/12/17 02:53:27;;;;;;;;;;;8.00;92.70;;;;;;5048660;28;20272;-53
2021/12/17 02:55:54;;;;;;;;;;;8.00;92.70;;;;;;5039576;28;20367;-52
2021/12/17 02:58:21;;;;;;;;;;;8.00;92.60;;;;;;5037944;28;19909;-48
2021/12/17 03:00:47;;;;;;;;;;;8.00;92.70;;;;;;5047803;28;19908;-48
2021/12/17 03:03:14;;;;;;;;;;;8.00;92.70;;;;;;5050120;28;20356;-46
2021/12/17 03:05:42;;;;;;;;;;;8.10;92.60;;;;;;5035844;28;19912;-46
2021/12/17 03:08:14;;;;;;;;;;;8.10;92.70;;;;;;5051034;28;19912;-48
2021/12/17 03:10:42;;;;;;;;;;;8.10;92.60;;;;;;5053506;28;19958;-46
2021/12/17 03:13:09;;;;;;;;;;;8.20;92.70;;;;;;5050055;28;19912;-46
2021/12/17 03:23:28;;;;;;;;;;;8.00;92.50;;;;;;5034033;28;19919;-50
2021/12/17 03:25:56;;;;;;;;;;;8.00;92.60;;;;;;5041318;28;19968;-46
2021/12/17 03:28:22;;;;;;;;;;;8.00;92.70;;;;;;5033222;28;19925;-46
2021/12/17 03:30:48;;;;;;;;;;;8.10;92.70;;;;;;5033344;28;19994;-46
2021/12/17 03:33:15;;;;;;;;;;;8.20;92.80;;;;;;5038532;28;19980;-46
2021/12/17 03:35:42;;;;;;;;;;;8.20;92.70;;;;;;5041316;28;19971;-46
2021/12/17 03:38:08;;;;;;;;;;;8.10;92.70;;;;;;5033385;28;19917;-46
2021/12/17 03:40:35;;;;;;;;;;;8.20;92.80;;;;;;5015469;28;20385;-49
2021/12/17 03:43:03;;;;;;;;;;;8.20;92.70;;;;;;5019344;28;19913;-48
2021/12/17 03:45:30;;;;;;;;;;;8.20;92.70;;;;;;5052959;28;19920;-46
2021/12/17 03:47:57;;;;;;;;;;;8.20;92.60;;;;;;5030597;28;20012;-46
2021/12/17 03:50:24;;;;;;;;;;;8.20;92.60;;;;;;5033328;28;19968;-45
2021/12/17 03:52:51;;;;;;;;;;;8.20;92.70;;;;;;5052734;28;19905;-46
2021/12/17 03:55:18;;;;;;;;;;;8.20;92.60;;;;;;5022856;28;19944;-48
2021/12/17 03:57:45;;;;;;;;;;;8.20;92.70;;;;;;5035313;28;20321;-51
2021/12/17 04:00:11;;;;;;;;;;;8.20;92.70;;;;;;5036971;28;20250;-49
2021/12/17 04:02:38;;;;;;;;;;;8.20;92.70;;;;;;5015613;28;19936;-48
2021/12/17 04:05:04;;;;;;;;;;;8.10;92.70;;;;;;5052445;28;19908;-46
2021/12/17 04:07:30;;;;;;;;;;;8.10;92.70;;;;;;5052407;28;19908;-45
2021/12/17 04:09:57;;;;;;;;;;;8.20;92.70;;;;;;5031786;28;19924;-46
2021/12/17 04:12:42;;;;;;;;;;;8.20;92.70;;;;;;5032644;28;19924;-45
2021/12/17 04:15:09;;;;;;;;;;;8.10;92.70;;;;;;5052213;28;19922;-47
2021/12/17 04:17:43;;;;;;;;;;;8.10;92.70;;;;;;5034367;28;19908;-46
2021/12/17 04:20:10;;;;;;;;;;;8.10;92.70;;;;;;5044971;28;20360;-46
2021/12/17 04:22:36;;;;;;;;;;;8.10;92.80;;;;;;5016468;28;19920;-47
2021/12/17 04:25:03;;;;;;;;;;;8.10;92.80;;;;;;5032956;28;20338;-47
2021/12/17 04:27:30;;;;;;;;;;;8.10;92.80;;;;;;5051278;28;19936;-47
2021/12/17 04:29:57;;;;;;;;;;;8.20;92.80;;;;;;5045755;28;19960;-46
2021/12/17 04:32:24;;;;;;;;;;;8.20;92.80;;;;;;5031988;28;19956;-46
2021/12/17 04:34:51;;;;;;;;;;;8.10;92.80;;;;;;5026518;28;19919;-47
2021/12/17 04:37:18;;;;;;;;;;;8.20;92.80;;;;;;5041051;28;19949;-46
2021/12/17 04:39:44;;;;;;;;;;;8.20;92.90;;;;;;5037717;28;19916;-48
2021/12/17 04:42:20;;;;;;;;;;;8.20;92.80;;;;;;5051422;28;19909;-46
2021/12/17 04:44:53;;;;;;;;;;;8.20;92.80;;;;;;5032941;28;19921;-47
2021/12/17 04:58:02;;;;;;;;;;;8.10;92.80;;;;;;5025949;28;20060;-47
2021/12/17 05:00:30;;;;;;;;;;;8.10;92.70;;;;;;5042891;28;19955;-49
2021/12/17 05:02:58;;;;;;;;;;;8.00;92.80;;;;;;5042094;28;19904;-46
2021/12/17 05:05:30;;;;;;;;;;;8.00;92.90;;;;;;5040504;28;19916;-45
2021/12/17 05:08:04;;;;;;;;;;;8.10;93.00;;;;;;5041972;28;20253;-45
2021/12/17 05:18:40;;;;;;;;;;;8.00;92.90;;;;;;5039301;28;20280;-49
2021/12/17 05:21:09;;;;;;;;;;;8.00;93.00;;;;;;5032615;28;19948;-46
2021/12/17 05:23:39;;;;;;;;;;;8.00;92.90;;;;;;5042588;28;19909;-45
2021/12/17 05:26:07;;;;;;;;;;;8.10;92.90;;;;;;5045184;28;20023;-46
2021/12/17 05:28:33;;;;;;;;;;;8.00;92.90;;;;;;5031206;28;19913;-46
2021/12/17 05:31:00;;;;;;;;;;;8.00;92.90;;;;;;5042913;28;19936;-47
2021/12/17 05:33:28;;;;;;;;;;;8.00;92.80;;;;;;5025847;28;19917;-46
2021/12/17 05:35:56;;;;;;;;;;;8.00;92.80;;;;;;5035874;28;19912;-45
2021/12/17 05:38:23;;;;;;;;;;;8.10;92.80;;;;;;5019117;28;19919;-46
2021/12/17 05:40:53;;;;;;;;;;;8.00;92.70;;;;;;5050646;28;20015;-45
2021/12/17 05:43:19;;;;;;;;;;;8.00;92.80;;;;;;5048310;28;19916;-48
2021/12/17 05:45:52;;;;;;;;;;;8.00;92.80;;;;;;5050666;28;20346;-49
2021/12/17 05:48:25;;;;;;;;;;;8.00;92.70;;;;;;5039716;28;20323;-46
2021/12/17 05:50:53;;;;;;;;;;;8.00;92.70;;;;;;5035532;28;19958;-44
2021/12/17 05:53:22;;;;;;;;;;;8.00;92.70;;;;;;5040294;28;19987;-47
2021/12/17 05:55:49;;;;;;;;;;;8.00;92.70;;;;;;5041497;28;19936;-47
2021/12/17 05:58:16;;;;;;;;;;;8.00;92.70;;;;;;5041817;28;19917;-45
2021/12/17 06:00:43;;;;;;;;;;;8.00;92.80;;;;;;5039830;28;19924;-44
2021/12/17 06:03:10;;;;;;;;;;;8.00;92.70;;;;;;5041007;28;20522;-46
2021/12/17 06:05:37;;;;;;;;;;;8.10;92.70;;;;;;5023601;28;19936;-44
2021/12/17 06:08:06;;;;;;;;;;;8.00;92.70;;;;;;5038560;28;19913;-46
2021/12/17 06:10:33;;;;;;;;;;;8.00;92.60;;;;;;5024065;28;19905;-44
2021/12/17 06:12:59;;;;;;;;;;;7.90;92.50;;;;;;5022073;28;19920;-45
2021/12/17 06:15:26;;;;;;;;;;;8.00;92.50;;;;;;5041344;28;20385;-47
2021/12/17 06:17:54;;;;;;;;;;;7.90;92.40;;;;;;5023320;28;19913;-43
2021/12/17 06:20:21;;;;;;;;;;;7.90;92.30;;;;;;5040588;28;19916;-44
2021/12/17 06:22:47;;;;;;;;;;;7.90;92.30;;;;;;5035659;28;19909;-46
2021/12/17 06:25:14;;;;;;;;;;;7.90;92.30;;;;;;5044796;28;19917;-46
2021/12/17 06:27:41;;;;;;;;;;;7.90;92.30;;;;;;5053179;28;19920;-44
2021/12/17 06:30:08;;;;;;;;;;;7.90;92.30;;;;;;5051906;28;19912;-44
2021/12/17 06:32:35;;;;;;;;;;;8.00;92.30;;;;;;5049441;28;20301;-45
2021/12/17 06:35:02;;;;;;;;;;;7.90;92.30;;;;;;5063207;28;19991;-44
2021/12/17 06:37:29;;;;;;;;;;;7.90;92.30;;;;;;5062974;28;20443;-46
2021/12/17 06:39:58;;;;;;;;;;;8.00;92.40;;;;;;5050680;28;20366;-44
2021/12/17 06:42:25;;;;;;;;;;;8.00;92.40;;;;;;5058013;28;19948;-43
2021/12/17 06:44:56;;;;;;;;;;;8.00;92.30;;;;;;5054695;28;19908;-45
2021/12/17 06:54:41;;;;;;;;;;;8.00;92.30;;;;;;5055528;28;19920;-46
2021/12/17 06:59:22;;;;;;;;;;;8.00;92.20;;;;;;5052094;28;19958;-46
2021/12/17 07:05:49;;;;;;;;;;;8.00;92.30;;;;;;5050655;28;19916;-46
2021/12/17 07:17:48;;;;;;;;;;;7.90;92.60;;;;;;5054960;28;19915;-49
2021/12/17 07:28:32;;;;;;;;;;;8.00;92.70;;;;;;5036726;28;19919;-48
2021/12/17 07:33:38;;;;;;;;;;;8.10;92.70;;;;;;5038576;28;20434;-50
2021/12/17 07:36:14;;;;;;;;;;;8.10;92.70;;;;;;5034689;28;19921;-47
2021/12/17 07:38:48;;;;;;;;;;;8.10;92.70;;;;;;5039553;28;19974;-48
2021/12/17 07:41:15;;;;;;;;;;;8.10;92.70;;;;;;5040108;28;19921;-45
2021/12/17 07:43:51;;;;;;;;;;;8.20;92.70;;;;;;5038188;28;19913;-47
2021/12/17 07:46:19;;;;;;;;;;;8.20;92.70;;;;;;5045716;28;19913;-47
2021/12/17 07:48:46;;;;;;;;;;;8.20;92.60;;;;;;5043765;28;19913;-45
2021/12/17 07:51:14;;;;;;;;;;;8.20;92.60;;;;;;5044051;28;20346;-45
2021/12/17 07:53:41;;;;;;;;;;;8.10;92.60;;;;;;5039591;28;19916;-46
2021/12/17 07:56:10;;;;;;;;;;;8.20;92.60;;;;;;5026202;28;19913;-49
2021/12/17 07:58:35;;;;;;;;;;;8.20;92.70;;;;;;5041706;28;19974;-47
2021/12/17 08:01:02;;;;;;;;;;;8.20;92.60;;;;;;5044754;28;19913;-46
2021/12/17 08:03:29;;;;;;;;;;;8.30;92.50;;;;;;5015464;28;19922;-50
2021/12/17 08:05:55;;;;;;;;;;;8.20;92.50;;;;;;5037707;28;19913;-46
2021/12/17 08:08:22;;;;;;;;;;;8.30;92.50;;;;;;5050285;28;19909;-46
2021/12/17 08:10:49;;;;;;;;;;;8.30;92.50;;;;;;5052175;28;20241;-45
2021/12/17 08:13:23;;;;;;;;;;;8.30;92.40;;;;;;5043250;28;20261;-46
2021/12/17 08:24:16;;;;;;;;;;;8.30;92.20;;;;;;5043260;28;20534;-46
2021/12/17 08:31:44;;;;;;;;;;;8.40;91.90;;;;;;5040739;28;20368;-46
2021/12/17 08:34:11;;;;;;;;;;;8.40;91.70;;;;;;5034058;28;19930;-47
2021/12/17 08:36:37;;;;;;;;;;;8.40;91.60;;;;;;5058921;28;19963;-46
2021/12/17 08:39:04;;;;;;;;;;;8.50;91.40;;;;;;5049831;28;20301;-45
2021/12/17 08:41:31;;;;;;;;;;;8.50;91.20;;;;;;5027029;28;20286;-45
2021/12/17 08:43:57;;;;;;;;;;;8.50;91.00;;;;;;5031652;28;19912;-50
2021/12/17 08:46:27;;;;;;;;;;;8.50;91.00;;;;;;5035604;28;19933;-45
2021/12/17 08:48:53;;;;;;;;;;;8.50;90.90;;;;;;5038746;28;20408;-45
2021/12/17 08:51:19;;;;;;;;;;;8.60;91.00;;;;;;5051371;28;19908;-45
2021/12/17 08:53:46;;;;;;;;;;;8.60;90.90;;;;;;5040271;28;19967;-46
2021/12/17 08:56:18;;;;;;;;;;;8.70;90.90;;;;;;5039648;28;20000;-46
2021/12/17 08:58:48;;;;;;;;;;;8.70;91.10;;;;;;5046271;28;19919;-44
2021/12/17 09:01:15;;;;;;;;;;;8.80;90.90;;;;;;5042891;28;19923;-48
2021/12/17 09:03:40;;;;;;;;;;;8.80;90.70;;;;;;5032035;28;19909;-44
2021/12/17 09:06:07;;;;;;;;;;;8.90;90.70;;;;;;5031374;28;19924;-44
2021/12/17 09:08:33;;;;;;;;;;;8.80;90.60;;;;;;5031676;28;19913;-46
2021/12/17 09:10:59;;;;;;;;;;;8.90;90.60;;;;;;5039788;28;19916;-49
2021/12/17 09:13:27;;;;;;;;;;;8.90;90.60;;;;;;5046197;28;19912;-46
2021/12/17 09:16:03;;;;;;;;;;;8.90;90.60;;;;;;5028081;28;19946;-46
2021/12/17 09:18:30;;;;;;;;;;;8.90;90.50;;;;;;5032483;28;19909;-46
2021/12/17 09:20:57;;;;;;;;;;;8.90;90.50;;;;;;5035030;28;19917;-45
2021/12/17 09:23:23;;;;;;;;;;;8.90;90.60;;;;;;5041837;28;19908;-45
2021/12/17 09:25:49;;;;;;;;;;;9.00;90.50;;;;;;5020548;28;20223;-47
2021/12/17 09:28:16;;;;;;;;;;;9.00;90.40;;;;;;5044045;28;19919;-49
2021/12/17 09:30:42;;;;;;;;;;;9.00;90.50;;;;;;5021164;28;19921;-47
2021/12/17 09:33:09;;;;;;;;;;;9.00;90.80;;;;;;5050765;28;19916;-45
2021/12/17 09:35:35;;;;;;;;;;;9.00;90.90;;;;;;5040628;28;19920;-46
2021/12/17 09:38:02;;;;;;;;;;;9.00;91.00;;;;;;5047210;28;19909;-43
2021/12/17 09:40:27;;;;;;;;;;;9.00;91.20;;;;;;5053691;28;19904;-46
2021/12/17 09:42:53;;;;;;;;;;;9.00;91.30;;;;;;5065067;28;19931;-47
2021/12/17 09:45:20;;;;;;;;;;;9.00;91.50;;;;;;5065466;28;19967;-44
2021/12/17 09:47:47;;;;;;;;;;;9.00;91.60;;;;;;5037683;28;20277;-46
2021/12/17 09:50:16;;;;;;;;;;;9.10;91.70;;;;;;5049274;28;19905;-47
2021/12/17 09:52:47;;;;;;;;;;;9.10;91.70;;;;;;5043572;28;19909;-46
2021/12/17 09:55:14;;;;;;;;;;;9.10;91.70;;;;;;5048168;28;19913;-45
2021/12/17 09:57:41;;;;;;;;;;;9.10;91.70;;;;;;5048148;28;20375;-47
2021/12/17 10:00:15;;;;;;;;;;;9.10;91.80;;;;;;5048151;28;20333;-46
2021/12/17 10:02:45;;;;;;;;;;;9.10;91.90;;;;;;5048657;28;19908;-49
2021/12/17 10:05:20;;;;;;;;;;;9.10;91.90;;;;;;5048630;28;19920;-47
2021/12/17 10:07:47;;;;;;;;;;;9.10;91.90;;;;;;5048277;28;19961;-46
2021/12/17 10:10:16;;;;;;;;;;;9.20;91.90;;;;;;5049280;28;19920;-49
2021/12/17 10:12:44;;;;;;;;;;;9.20;92.00;;;;;;5048470;28;19912;-52
2021/12/17 10:15:14;;;;;;;;;;;9.20;92.00;;;;;;5036492;28;19941;-53
2021/12/17 10:17:54;;;;;;;;;;;9.20;92.10;;;;;;5032020;28;19917;-53
2021/12/17 10:20:22;;;;;;;;;;;9.20;92.10;;;;;;5049720;28;19904;-53
2021/12/17 10:23:01;;;;;;;;;;;9.20;92.10;;;;;;5028781;28;19918;-50
2021/12/17 10:25:29;;;;;;;;;;;9.20;92.20;;;;;;5039096;28;19917;-54
2021/12/17 10:28:01;;;;;;;;;;;9.20;92.40;;;;;;5048351;28;20000;-49
2021/12/17 10:30:28;;;;;;;;;;;9.20;92.40;;;;;;5043410;28;19916;-51
2021/12/17 10:32:55;;;;;;;;;;;9.20;92.50;;;;;;5026979;28;19964;-48
2021/12/17 10:35:23;;;;;;;;;;;9.20;92.50;;;;;;5043804;28;19915;-52
2021/12/17 10:37:56;;;;;;;;;;;9.20;92.50;;;;;;5049832;28;19915;-53
2021/12/17 10:40:44;;;;;;;;;;;9.20;92.40;;;;;;5039255;28;20361;-52
2021/12/17 10:43:18;;;;;;;;;;;9.20;92.40;;;;;;5021949;28;20303;-53
2021/12/17 10:45:57;;;;;;;;;;;9.20;92.40;;;;;;5033375;28;20377;-51
2021/12/17 10:51:02;;;;;;;;;;;9.20;92.40;;;;;;5038332;28;19924;-52
2021/12/17 10:53:29;;;;;;;;;;;9.20;92.40;;;;;;5033751;28;19919;-52
2021/12/17 10:55:56;;;;;;;;;;;9.20;92.50;;;;;;5030643;28;20004;-54
2021/12/17 10:58:23;;;;;;;;;;;9.20;92.50;;;;;;5042578;28;19917;-53
2021/12/17 11:00:58;;;;;;;;;;;9.20;92.50;;;;;;5047327;28;19913;-54
2021/12/17 11:03:24;;;;;;;;;;;9.20;92.50;;;;;;5040410;28;19920;-47
2021/12/17 11:05:51;;;;;;;;;;;9.20;92.50;;;;;;5036604;28;19916;-51
2021/12/17 11:08:31;;;;;;;;;;;9.30;92.50;;;;;;5048475;28;19919;-52
2021/12/17 11:11:12;;;;;;;;;;;9.30;92.50;;;;;;5042594;28;19917;-47
2021/12/17 11:13:52;;;;;;;;;;;9.40;92.40;;;;;;5040249;28;19913;-52
2021/12/17 11:16:19;;;;;;;;;;;9.40;92.10;;;;;;5023406;28;20001;-50
2021/12/17 11:18:47;;;;;;;;;;;9.50;92.00;;;;;;5026691;28;19912;-47
2021/12/17 11:21:15;;;;;;;;;;;9.50;91.50;;;;;;5052822;28;19913;-47
2021/12/17 11:23:40;;;;;;;;;;;9.50;91.30;;;;;;5052934;28;19905;-48
2021/12/17 11:26:08;;;;;;;;;;;9.50;91.10;;;;;;5052403;28;19924;-48
2021/12/17 11:28:35;;;;;;;;;;;9.40;90.70;;;;;;5036735;28;19917;-46
2021/12/17 11:31:01;;;;;;;;;;;9.50;90.60;;;;;;5039117;28;19909;-47
2021/12/17 11:33:28;;;;;;;;;;;9.50;90.60;;;;;;5031356;28;19919;-47
2021/12/17 11:35:54;;;;;;;;;;;9.40;90.30;;;;;;5051169;28;20032;-48
2021/12/17 11:38:40;;;;;;;;;;;9.40;90.30;;;;;;5049185;28;19909;-48
2021/12/17 11:41:18;;;;;;;;;;;9.40;90.60;;;;;;5050152;28;19908;-48
2021/12/17 11:43:54;;;;;;;;;;;9.50;90.60;;;;;;5042346;28;19913;-46
2021/12/17 11:46:27;;;;;;;;;;;9.40;90.40;;;;;;5052406;28;19965;-44
2021/12/17 11:49:11;;;;;;;;;;;9.50;90.20;;;;;;5045420;28;19915;-49
2021/12/17 11:51:38;;;;;;;;;;;9.40;90.00;;;;;;5048227;28;19916;-46
2021/12/17 11:54:26;;;;;;;;;;;9.50;90.10;;;;;;5043161;28;19913;-49
2021/12/17 11:56:54;;;;;;;;;;;9.60;90.10;;;;;;5046667;28;19959;-47
2021/12/17 11:59:30;;;;;;;;;;;9.60;89.80;;;;;;5040222;28;19913;-47
2021/12/17 12:02:05;;;;;;;;;;;9.60;89.70;;;;;;5048708;28;19958;-43
2021/12/17 12:04:49;;;;;;;;;;;9.60;89.80;;;;;;5048072;28;19919;-44
2021/12/17 12:07:28;;;;;;;;;;;9.60;89.90;;;;;;5040824;28;19913;-47
2021/12/17 12:09:57;;;;;;;;;;;9.70;89.90;;;;;;5025979;28;19962;-44
2021/12/17 12:12:48;;;;;;;;;;;9.80;89.80;;;;;;5044724;28;19913;-45
2021/12/17 12:15:17;;;;;;;;;;;9.70;89.70;;;;;;5046779;28;19920;-44
2021/12/17 12:18:03;;;;;;;;;;;9.80;90.00;;;;;;5049702;28;19970;-46
2021/12/17 12:20:47;;;;;;;;;;;9.80;89.80;;;;;;5032940;28;19963;-46
2021/12/17 12:23:28;;;;;;;;;;;9.80;89.90;;;;;;5050508;28;19908;-43
2021/12/17 12:26:08;;;;;;;;;;;9.70;89.80;;;;;;5042260;28;19925;-45
2021/12/17 12:28:46;;;;;;;;;;;9.70;90.00;;;;;;5024676;28;19924;-49
2021/12/17 12:31:37;;;;;;;;;;;9.70;90.10;;;;;;5038354;28;19963;-46
2021/12/17 12:34:20;;;;;;;;;;;9.60;90.20;;;;;;5019794;28;19913;-48
2021/12/17 12:36:54;;;;;;;;;;;9.60;90.50;;;;;;5051373;28;19909;-44
2021/12/17 12:39:41;;;;;;;;;;;9.60;90.70;;;;;;5021689;28;19930;-48
2021/12/17 12:42:25;;;;;;;;;;;9.60;90.80;;;;;;5042091;28;19908;-46
2021/12/17 12:44:50;;;;;;;;;;;9.50;90.90;;;;;;5039595;28;19913;-47
2021/12/17 12:47:31;;;;;;;;;;;9.60;91.00;;;;;;5035177;28;19970;-46
2021/12/17 12:50:15;;;;;;;;;;;9.50;91.00;;;;;;5025069;28;19920;-50
2021/12/17 12:52:59;;;;;;;;;;;9.50;91.20;;;;;;5031432;28;20266;-46
2021/12/17 12:55:40;;;;;;;;;;;9.50;91.40;;;;;;5015393;28;19911;-46
2021/12/17 12:58:13;;;;;;;;;;;9.40;91.40;;;;;;5017464;28;19913;-49
2021/12/17 13:00:47;;;;;;;;;;;9.40;91.50;;;;;;5032331;28;20325;-48
2021/12/17 13:03:22;;;;;;;;;;;9.50;91.80;;;;;;5029833;28;19909;-49
2021/12/17 13:05:49;;;;;;;;;;;9.40;91.70;;;;;;5045916;28;19909;-46
2021/12/17 13:08:17;;;;;;;;;;;9.40;91.80;;;;;;5014655;28;19913;-49
2021/12/17 13:10:49;;;;;;;;;;;9.40;91.90;;;;;;5034654;28;19908;-49
2021/12/17 13:14:03;;;;;;;;;;;9.40;91.90;;;;;;5045288;28;19909;-47
2021/12/17 13:16:21;;;;;;;;;;;9.40;92.00;;;;;;5028147;28;19923;-47
2021/12/17 13:21:43;;;;;;;;;;;9.40;92.00;;;;;;5025874;28;19920;-50
2021/12/17 13:24:16;;;;;;;;;;;9.40;92.00;;;;;;5039144;28;19913;-44
2021/12/17 13:26:47;;;;;;;;;;;9.30;92.10;;;;;;5024521;28;19916;-47
2021/12/17 13:29:33;;;;;;;;;;;9.40;92.30;;;;;;5030911;28;19924;-46
2021/12/17 13:32:01;;;;;;;;;;;9.30;92.20;;;;;;5042995;28;19922;-48
2021/12/17 13:34:46;;;;;;;;;;;9.30;92.30;;;;;;5015797;28;19909;-51
2021/12/17 13:37:19;;;;;;;;;;;9.30;92.30;;;;;;5032766;28;20307;-47
2021/12/17 13:40:04;;;;;;;;;;;9.20;92.30;;;;;;5047546;28;20372;-49
2021/12/17 13:42:35;;;;;;;;;;;9.20;92.40;;;;;;5029568;28;20288;-46
2021/12/17 13:45:01;;;;;;;;;;;9.20;92.30;;;;;;5042413;28;20046;-46
2021/12/17 13:47:41;;;;;;;;;;;9.10;92.30;;;;;;5049580;28;19919;-47
2021/12/17 13:50:14;;;;;;;;;;;9.00;92.40;;;;;;5031014;28;20345;-47
2021/12/17 13:53:18;;;;;;;;;;;9.10;92.60;;;;;;5046078;28;19984;-48
2021/12/17 13:55:51;;;;;;;;;;;9.10;92.50;;;;;;4986343;28;19925;-48
2021/12/17 13:58:22;;;;;;;;;;;9.00;92.40;;;;;;4983751;28;19910;-46
2021/12/17 14:00:52;;;;;;;;;;;9.00;92.40;;;;;;4986515;28;20000;-50
2021/12/17 14:03:21;;;;;;;;;;;8.90;92.30;;;;;;4981377;28;19962;-49
2021/12/17 14:05:57;;;;;;;;;;;8.90;92.30;;;;;;4982280;28;19920;-47
2021/12/17 14:08:23;;;;;;;;;;;8.90;92.40;;;;;;4983130;28;20279;-47
2021/12/17 14:10:53;;;;;;;;;;;8.80;92.30;;;;;;4987407;28;19944;-48
2021/12/17 14:13:40;;;;;;;;;;;8.80;92.30;;;;;;4984324;28;19957;-48
2021/12/17 14:16:07;;;;;;;;;;;8.80;92.30;;;;;;4987300;28;20255;-46
2021/12/17 14:18:34;;;;;;;;;;;8.80;92.30;;;;;;4980921;28;20382;-45
2021/12/17 14:21:01;;;;;;;;;;;8.80;92.30;;;;;;4987840;28;19914;-49
2021/12/17 14:23:28;;;;;;;;;;;8.70;92.30;;;;;;4987219;28;20334;-49
2021/12/17 14:25:58;;;;;;;;;;;8.70;92.30;;;;;;5034127;28;19949;-47
2021/12/17 14:28:30;;;;;;;;;;;8.70;92.30;;;;;;5062696;28;20342;-44
2021/12/17 14:31:02;;;;;;;;;;;8.70;92.40;;;;;;5060824;28;19912;-48
2021/12/17 14:33:46;;;;;;;;;;;8.70;92.40;;;;;;5065534;28;19912;-44
2021/12/17 14:36:18;;;;;;;;;;;8.70;92.50;;;;;;5061850;28;19905;-48
2021/12/17 14:38:55;;;;;;;;;;;8.70;92.50;;;;;;5059061;28;19917;-49
2021/12/17 14:41:38;;;;;;;;;;;8.70;92.50;;;;;;5058655;28;19912;-48
2021/12/17 14:44:30;;;;;;;;;;;8.70;92.40;;;;;;5065343;28;20393;-45
2021/12/17 14:47:36;;;;;;;;;;;8.60;92.40;;;;;;5065702;28;19966;-49
2021/12/17 15:01:10;;;;;;;;;;;8.60;92.40;;;;;;5064786;28;19923;-47
2021/12/17 15:03:43;;;;;;;;;;;8.60;92.50;;;;;;5065698;28;20012;-45
2021/12/17 15:06:11;;;;;;;;;;;8.60;92.50;;;;;;5062479;28;19912;-48
2021/12/17 15:08:38;;;;;;;;;;;8.60;92.50;;;;;;5062939;28;19917;-44
2021/12/17 15:11:13;;;;;;;;;;;8.60;92.60;;;;;;5061282;28;19970;-45
2021/12/17 15:13:40;;;;;;;;;;;8.60;92.60;;;;;;5063135;28;20420;-50
2021/12/17 15:16:07;;;;;;;;;;;8.50;92.70;;;;;;5063685;28;20066;-50
2021/12/17 15:18:34;;;;;;;;;;;8.50;92.70;;;;;;5068050;28;19908;-48
2021/12/17 15:21:00;;;;;;;;;;;8.50;92.70;;;;;;5065843;28;19913;-49
2021/12/17 15:23:30;;;;;;;;;;;8.40;92.70;;;;;;5062944;28;19916;-47
2021/12/17 15:26:00;;;;;;;;;;;8.40;92.70;;;;;;5065171;28;19921;-49
2021/12/17 15:28:27;;;;;;;;;;;8.40;92.70;;;;;;5067053;28;19908;-49
2021/12/17 15:30:57;;;;;;;;;;;8.40;92.80;;;;;;5063588;28;19942;-46
2021/12/17 15:33:24;;;;;;;;;;;8.40;92.80;;;;;;5065342;28;19948;-46
2021/12/17 15:35:51;;;;;;;;;;;8.40;92.90;;;;;;5069232;28;20349;-47
2021/12/17 15:38:19;;;;;;;;;;;8.40;92.90;;;;;;5062496;28;19919;-47
2021/12/17 15:40:46;;;;;;;;;;;8.40;92.90;;;;;;5061510;28;19954;-48
2021/12/17 15:43:14;;;;;;;;;;;8.30;93.00;;;;;;5062943;28;20002;-46
2021/12/17 15:45:42;;;;;;;;;;;8.30;93.00;;;;;;5064387;28;20384;-47
2021/12/17 15:48:10;;;;;;;;;;;8.30;93.00;;;;;;5063305;28;19923;-45
2021/12/17 15:50:40;;;;;;;;;;;8.20;93.00;;;;;;5072755;28;19905;-45
2021/12/17 15:53:07;;;;;;;;;;;8.20;93.10;;;;;;5062757;28;19921;-46
2021/12/17 15:55:35;;;;;;;;;;;8.20;93.10;;;;;;5051574;28;19909;-47
2021/12/17 15:58:02;;;;;;;;;;;8.20;93.20;;;;;;5062276;28;20345;-45
2021/12/17 16:00:32;;;;;;;;;;;8.20;93.20;;;;;;5072369;28;19955;-49
2021/12/17 16:03:00;;;;;;;;;;;8.20;93.20;;;;;;5069681;28;20312;-50
2021/12/17 16:05:27;;;;;;;;;;;8.20;93.30;;;;;;5058681;28;19913;-47
2021/12/17 16:07:56;;;;;;;;;;;8.20;93.30;;;;;;5055475;28;19987;-47
2021/12/17 16:21:08;;;;;;;;;;;8.20;93.30;;;;;;5070404;28;19923;-49
2021/12/17 16:23:52;;;;;;;;;;;8.20;93.40;;;;;;5060219;28;19913;-51
2021/12/17 16:26:19;;;;;;;;;;;8.20;93.40;;;;;;5041369;28;19921;-53
2021/12/17 16:28:47;;;;;;;;;;;8.20;93.40;;;;;;5015653;28;20348;-48
2021/12/17 16:31:15;;;;;;;;;;;8.20;93.50;;;;;;5032021;28;19909;-47
2021/12/17 16:33:42;;;;;;;;;;;8.10;93.50;;;;;;5021956;28;19935;-53
2021/12/17 16:36:12;;;;;;;;;;;8.10;93.50;;;;;;5047274;28;19964;-54
2021/12/17 16:38:38;;;;;;;;;;;8.10;93.60;;;;;;5035772;28;19913;-54
2021/12/17 16:41:06;;;;;;;;;;;8.10;93.60;;;;;;5036471;28;19935;-53
2021/12/17 16:43:37;;;;;;;;;;;8.20;93.60;;;;;;5047594;28;19957;-53
2021/12/17 16:48:34;;;;;;;;;;;8.20;93.70;;;;;;5051842;28;20334;-52
2021/12/17 16:51:01;;;;;;;;;;;8.20;93.70;;;;;;5041605;28;19909;-55
2021/12/17 16:53:27;;;;;;;;;;;8.10;93.70;;;;;;5048976;28;19931;-55
2021/12/17 16:55:53;;;;;;;;;;;8.10;93.70;;;;;;5050926;28;20346;-51
2021/12/17 16:58:20;;;;;;;;;;;8.10;93.80;;;;;;5043462;28;19913;-55
2021/12/17 17:00:47;;;;;;;;;;;8.00;93.70;;;;;;5046347;28;19931;-54
2021/12/17 17:03:14;;;;;;;;;;;8.00;93.70;;;;;;5050670;28;19909;-52
2021/12/17 17:05:43;;;;;;;;;;;8.00;93.70;;;;;;5051144;28;19939;-53
2021/12/17 17:08:11;;;;;;;;;;;8.10;93.80;;;;;;5044879;28;19909;-54
2021/12/17 17:10:38;;;;;;;;;;;8.00;93.70;;;;;;5044793;28;19958;-53
2021/12/17 17:13:07;;;;;;;;;;;8.00;93.80;;;;;;5051232;28;20342;-53
2021/12/17 17:15:35;;;;;;;;;;;8.00;93.70;;;;;;5046213;28;19948;-51
2021/12/17 17:18:05;;;;;;;;;;;7.90;93.60;;;;;;5031137;28;19916;-54
2021/12/17 17:20:32;;;;;;;;;;;7.90;93.70;;;;;;5040713;28;19940;-54
2021/12/17 17:22:59;;;;;;;;;;;7.90;93.70;;;;;;5033583;28;19948;-54
2021/12/17 17:25:26;;;;;;;;;;;7.90;93.70;;;;;;5037170;28;20012;-54
2021/12/17 17:27:53;;;;;;;;;;;7.80;93.70;;;;;;5038964;28;19966;-54
2021/12/17 17:30:20;;;;;;;;;;;7.80;93.70;;;;;;5030825;28;19909;-53
2021/12/17 17:32:46;;;;;;;;;;;7.80;93.80;;;;;;5032787;28;20334;-53
2021/12/17 17:35:13;;;;;;;;;;;7.80;93.80;;;;;;5049142;28;19915;-54
2021/12/17 17:37:39;;;;;;;;;;;7.80;93.80;;;;;;5048056;28;19909;-51
2021/12/17 17:40:08;;;;;;;;;;;7.90;93.80;;;;;;5050628;28;20348;-51
2021/12/17 17:42:34;;;;;;;;;;;7.80;93.90;;;;;;5045592;28;20311;-53
2021/12/17 17:45:02;;;;;;;;;;;7.90;93.90;;;;;;5024462;28;20350;-52
2021/12/17 17:47:29;;;;;;;;;;;7.90;93.90;;;;;;5031559;28;19989;-49
2021/12/17 17:49:56;;;;;;;;;;;7.90;93.90;;;;;;5049376;28;19920;-53
2021/12/17 17:52:23;;;;;;;;;;;7.90;93.90;;;;;;5033996;28;20265;-49
2021/12/17 17:54:54;;;;;;;;;;;7.90;93.90;;;;;;5048964;28;19920;-53